Time;durP1;ratioP1;P1;durP2;ratioP2;P2;SDS_P1;SDS_P2;PMS_P1;PMS_P2;Temp;Humidity;BMP_temperature;BMP_pressure;BME280_temperature;BME280_humidity;BME280_pressure;Samples;Min_cycle;Max_cycle;Signal;HPM_P1;HPM_P2
2023/10/28 00:03:23;;;;;;;11.50;10.40;;;;;;;;;;12612263;23;20739;-68
2023/10/28 00:08:19;;;;;;;11.70;10.68;;;;;;;;;;12611939;23;20021;-70
2023/10/28 00:13:15;;;;;;;11.75;10.57;;;;;;;;;;12613288;23;20644;-72
2023/10/28 00:18:12;;;;;;;12.02;10.98;;;;;;;;;;12612950;23;20052;-70
2023/10/28 00:23:08;;;;;;;11.48;10.57;;;;;;;;;;12612392;23;20028;-71
2023/10/28 00:28:05;;;;;;;12.13;11.13;;;;;;;;;;12612627;23;20446;-71
2023/10/28 00:33:02;;;;;;;11.00;10.07;;;;;;;;;;12612171;23;20039;-69
2023/10/28 00:37:58;;;;;;;11.38;10.50;;;;;;;;;;12613548;23;20028;-69
2023/10/28 00:42:56;;;;;;;12.05;10.48;;;;;;;;;;12612534;23;20016;-70
2023/10/28 00:47:53;;;;;;;11.13;10.23;;;;;;;;;;12612417;23;20029;-71
2023/10/28 00:52:52;;;;;;;11.40;10.30;;;;;;;;;;12607443;23;20055;-71
2023/10/28 00:57:49;;;;;;;10.68;9.88;;;;;;;;;;12611965;23;20020;-69
2023/10/28 01:02:45;;;;;;;11.48;10.57;;;;;;;;;;12612286;23;20370;-70
2023/10/28 01:07:46;;;;;;;10.70;9.75;;;;;;;;;;12613067;23;20024;-70
2023/10/28 01:12:42;;;;;;;10.88;9.98;;;;;;;;;;12615183;23;20048;-71
2023/10/28 01:17:39;;;;;;;11.45;10.45;;;;;;;;;;12615633;23;20021;-71
2023/10/28 01:22:35;;;;;;;10.57;9.77;;;;;;;;;;12615170;23;20016;-71
2023/10/28 01:27:31;;;;;;;11.13;10.23;;;;;;;;;;12615144;23;20087;-70
2023/10/28 01:32:28;;;;;;;11.15;10.25;;;;;;;;;;12615523;23;20024;-70
2023/10/28 01:37:24;;;;;;;11.10;10.23;;;;;;;;;;12615917;23;20016;-71
2023/10/28 01:42:21;;;;;;;11.63;10.48;;;;;;;;;;12616340;23;20075;-70
2023/10/28 01:47:18;;;;;;;11.70;10.60;;;;;;;;;;12614717;23;20067;-70
2023/10/28 01:52:14;;;;;;;11.25;10.45;;;;;;;;;;12613470;23;20504;-69
2023/10/28 01:57:10;;;;;;;10.80;9.90;;;;;;;;;;12608512;23;20031;-69
2023/10/28 02:02:07;;;;;;;11.00;9.90;;;;;;;;;;12614717;23;20020;-69
2023/10/28 02:07:06;;;;;;;10.85;9.85;;;;;;;;;;12614912;23;20660;-69
2023/10/28 02:12:04;;;;;;;10.95;9.95;;;;;;;;;;12613387;23;20029;-69
2023/10/28 02:17:00;;;;;;;11.15;10.27;;;;;;;;;;12608907;23;20075;-69
2023/10/28 02:21:58;;;;;;;12.43;10.68;;;;;;;;;;12613341;23;20021;-71
2023/10/28 02:27:10;;;;;;;10.40;9.50;;;;;;;;;;12615171;23;20035;-70
2023/10/28 02:32:08;;;;;;;10.90;10.00;;;;;;;;;;12612933;23;20032;-69
2023/10/28 02:37:05;;;;;;;11.23;10.27;;;;;;;;;;12613770;23;20021;-70
2023/10/28 02:42:01;;;;;;;11.38;10.38;;;;;;;;;;12611365;23;20029;-70
2023/10/28 02:46:58;;;;;;;11.63;10.63;;;;;;;;;;12614346;23;20052;-70
2023/10/28 02:51:54;;;;;;;12.35;11.35;;;;;;;;;;12612237;23;20024;-69
2023/10/28 02:56:51;;;;;;;11.35;10.35;;;;;;;;;;12613049;23;20027;-69
2023/10/28 03:01:48;;;;;;;11.15;10.15;;;;;;;;;;12606632;23;20021;-69
2023/10/28 03:06:45;;;;;;;11.90;10.90;;;;;;;;;;12612774;23;20027;-71
2023/10/28 03:11:41;;;;;;;11.30;10.30;;;;;;;;;;12612694;23;20031;-71
2023/10/28 03:16:38;;;;;;;12.77;11.68;;;;;;;;;;12610148;23;20027;-70
2023/10/28 03:21:35;;;;;;;12.60;11.50;;;;;;;;;;12612097;23;20024;-70
2023/10/28 03:26:32;;;;;;;12.90;11.80;;;;;;;;;;12612227;23;20028;-70
2023/10/28 03:31:28;;;;;;;12.30;11.35;;;;;;;;;;12612223;23;20020;-71
2023/10/28 03:36:25;;;;;;;12.98;11.77;;;;;;;;;;12611285;23;20055;-70
2023/10/28 03:41:21;;;;;;;12.95;11.88;;;;;;;;;;12606849;23;20072;-71
2023/10/28 03:46:21;;;;;;;13.73;12.52;;;;;;;;;;12612910;23;20028;-70
2023/10/28 03:51:17;;;;;;;12.77;11.65;;;;;;;;;;12611828;23;20021;-70
2023/10/28 03:56:13;;;;;;;14.07;12.65;;;;;;;;;;12611548;23;20029;-70
2023/10/28 04:01:10;;;;;;;13.27;12.18;;;;;;;;;;12611769;23;20121;-71
2023/10/28 04:06:06;;;;;;;13.85;12.65;;;;;;;;;;12604378;23;20378;-70
2023/10/28 04:11:04;;;;;;;14.13;12.68;;;;;;;;;;12610688;23;20020;-71
2023/10/28 04:16:01;;;;;;;14.23;13.05;;;;;;;;;;12610971;23;20055;-71
2023/10/28 04:20:57;;;;;;;14.07;12.88;;;;;;;;;;12613016;23;20024;-70
2023/10/28 04:25:54;;;;;;;14.05;12.85;;;;;;;;;;12613078;23;20028;-70
2023/10/28 04:30:57;;;;;;;14.93;13.63;;;;;;;;;;12612477;23;20136;-71
2023/10/28 04:35:53;;;;;;;14.50;13.02;;;;;;;;;;12613342;23;20224;-70
2023/10/28 04:40:50;;;;;;;15.20;13.90;;;;;;;;;;12617468;23;20031;-69
2023/10/28 04:45:46;;;;;;;15.40;13.85;;;;;;;;;;12617074;23;20020;-71
2023/10/28 04:50:44;;;;;;;16.05;14.35;;;;;;;;;;12613886;23;20616;-69
2023/10/28 04:55:43;;;;;;;14.88;13.43;;;;;;;;;;12612139;23;21000;-70
2023/10/28 05:00:40;;;;;;;15.95;14.38;;;;;;;;;;12616606;23;20054;-69
2023/10/28 05:05:37;;;;;;;15.88;14.48;;;;;;;;;;12609979;23;20443;-69
2023/10/28 05:10:33;;;;;;;14.52;13.20;;;;;;;;;;12615906;23;20032;-70
2023/10/28 05:15:30;;;;;;;16.33;14.73;;;;;;;;;;12615971;23;20451;-69
2023/10/28 05:20:26;;;;;;;15.45;13.90;;;;;;;;;;12615787;23;20027;-70
2023/10/28 05:25:22;;;;;;;16.40;14.63;;;;;;;;;;12615745;23;20032;-69
2023/10/28 05:30:19;;;;;;;16.38;14.90;;;;;;;;;;12615725;23;20505;-70
2023/10/28 05:35:15;;;;;;;15.73;14.20;;;;;;;;;;12616509;23;20466;-70
2023/10/28 05:40:13;;;;;;;15.30;14.05;;;;;;;;;;12616272;23;20087;-71
2023/10/28 05:45:10;;;;;;;17.23;15.65;;;;;;;;;;12616036;23;20016;-71
2023/10/28 05:50:07;;;;;;;17.33;15.77;;;;;;;;;;12614838;23;20063;-70
2023/10/28 05:55:04;;;;;;;16.77;15.30;;;;;;;;;;12616618;23;20079;-70
2023/10/28 06:00:01;;;;;;;15.90;14.13;;;;;;;;;;12609021;23;20678;-71
2023/10/28 06:04:57;;;;;;;16.90;15.40;;;;;;;;;;12614023;23;20032;-70
2023/10/28 06:09:53;;;;;;;15.30;14.00;;;;;;;;;;12612346;23;20067;-68
2023/10/28 06:14:50;;;;;;;15.13;13.73;;;;;;;;;;12612229;23;20021;-69
2023/10/28 06:19:47;;;;;;;17.77;14.93;;;;;;;;;;12613929;23;20023;-70
2023/10/28 06:24:44;;;;;;;14.07;12.77;;;;;;;;;;12614339;23;20053;-73
2023/10/28 06:29:40;;;;;;;21.50;14.63;;;;;;;;;;12608526;23;20028;-73
2023/10/28 06:34:38;;;;;;;15.45;13.93;;;;;;;;;;12611655;23;20056;-72
2023/10/28 06:39:34;;;;;;;14.60;13.32;;;;;;;;;;12609267;23;20067;-74
2023/10/28 06:44:32;;;;;;;14.98;13.48;;;;;;;;;;12627784;23;20028;-71
2023/10/28 06:49:41;;;;;;;18.83;14.43;;;;;;;;;;12678045;22;20035;-69
2023/10/28 06:54:59;;;;;;;15.93;14.43;;;;;;;;;;12653736;23;20035;-72
2023/10/28 06:59:55;;;;;;;14.85;13.55;;;;;;;;;;12694972;22;20020;-73
2023/10/28 07:04:52;;;;;;;14.45;13.25;;;;;;;;;;12690076;23;20087;-73
2023/10/28 07:09:48;;;;;;;16.48;14.93;;;;;;;;;;12667611;23;20030;-70
2023/10/28 07:14:45;;;;;;;16.30;14.55;;;;;;;;;;12689980;23;20024;-74
2023/10/28 07:19:53;;;;;;;15.10;13.80;;;;;;;;;;12670023;23;20024;-73
2023/10/28 07:25:06;;;;;;;14.80;12.93;;;;;;;;;;12653380;23;20430;-73
2023/10/28 07:30:03;;;;;;;17.23;14.57;;;;;;;;;;12695503;22;20580;-72
2023/10/28 07:34:59;;;;;;;20.83;14.77;;;;;;;;;;12697452;23;20027;-74
2023/10/28 07:39:56;;;;;;;15.13;13.63;;;;;;;;;;12695748;22;20020;-73
2023/10/28 07:44:52;;;;;;;15.38;14.07;;;;;;;;;;12695511;23;20020;-73
2023/10/28 07:49:48;;;;;;;15.13;13.77;;;;;;;;;;12696448;22;20035;-73
2023/10/28 07:54:45;;;;;;;15.65;14.20;;;;;;;;;;12694261;23;20445;-74
2023/10/28 07:59:42;;;;;;;18.33;12.82;;;;;;;;;;12696142;22;20358;-75
2023/10/28 08:04:38;;;;;;;15.80;13.45;;;;;;;;;;12669886;23;20047;-73
2023/10/28 08:09:35;;;;;;;14.82;13.10;;;;;;;;;;12695637;22;20042;-76
2023/10/28 08:14:33;;;;;;;17.02;12.63;;;;;;;;;;12696282;23;20024;-76
2023/10/28 08:35:51;;;;;;;;;;;;;;;;;;;;;
2023/10/28 08:52:39;;;;;;;17.20;13.95;;;;;;;;;;12213583;23;20066;-76
2023/10/28 09:20:41;;;;;;;14.83;13.43;;;;;;;;;;12709823;22;20777;-76
2023/10/28 09:55:11;;;;;;;21.17;15.32;;;;;;;;;;12692598;23;20012;-75
2023/10/28 10:30:02;;;;;;;;;;;;;;;;;;;;;
2023/10/28 11:05:18;;;;;;;18.17;15.43;;;;;;;;;;12698484;22;20024;-76
2023/10/28 11:10:14;;;;;;;15.55;14.15;;;;;;;;;;12671381;23;20031;-76
2023/10/28 11:15:11;;;;;;;18.73;16.00;;;;;;;;;;12697417;23;20028;-75
2023/10/28 11:44:36;;;;;;;14.38;12.98;;;;;;;;;;12425529;23;20022;-75
2023/10/28 12:59:14;;;;;;;21.40;19.13;;;;;;;;;;12696568;23;20470;-76
2023/10/28 13:04:10;;;;;;;27.13;20.98;;;;;;;;;;12699713;23;20074;-76
2023/10/28 13:32:08;;;;;;;21.92;19.60;;;;;;;;;;12646372;23;20028;-76
2023/10/28 13:59:11;;;;;;;23.70;20.27;;;;;;;;;;12703602;22;20481;-76
2023/10/28 14:04:08;;;;;;;20.67;18.50;;;;;;;;;;12608436;23;20028;-75
2023/10/28 14:14:38;;;;;;;23.33;18.75;;;;;;;;;;12699603;22;20336;-75
2023/10/28 16:00:20;;;;;;;17.35;15.57;;;;;;;;;;12700822;22;20027;-76
2023/10/28 16:05:16;;;;;;;17.13;15.57;;;;;;;;;;12695260;23;20023;-76
2023/10/28 16:10:13;;;;;;;18.52;15.57;;;;;;;;;;12695889;22;20025;-76
2023/10/28 16:15:14;;;;;;;21.05;16.67;;;;;;;;;;12696408;23;20524;-76
2023/10/28 17:09:08;;;;;;;16.73;14.70;;;;;;;;;;12702847;22;20702;-76
2023/10/28 17:31:27;;;;;;;14.45;13.15;;;;;;;;;;12637850;23;20036;-76
2023/10/28 17:52:33;;;;;;;15.05;13.70;;;;;;;;;;12378189;23;20026;-73
2023/10/28 17:57:30;;;;;;;19.95;17.90;;;;;;;;;;12604527;23;20540;-73
2023/10/28 18:02:27;;;;;;;18.08;16.25;;;;;;;;;;12698581;23;20070;-73
2023/10/28 18:07:24;;;;;;;19.13;17.42;;;;;;;;;;12691967;23;20103;-73
2023/10/28 18:12:20;;;;;;;16.70;15.10;;;;;;;;;;12670817;23;20020;-73
2023/10/28 18:17:16;;;;;;;17.27;15.50;;;;;;;;;;12698120;23;20632;-73
2023/10/28 18:22:14;;;;;;;13.88;12.57;;;;;;;;;;12697760;23;20474;-74
2023/10/28 18:27:11;;;;;;;15.18;13.73;;;;;;;;;;12697925;23;20020;-74
2023/10/28 18:32:12;;;;;;;14.02;12.93;;;;;;;;;;12696915;23;20024;-73
2023/10/28 18:42:42;;;;;;;17.98;12.90;;;;;;;;;;12696256;22;20023;-74
2023/10/28 18:48:13;;;;;;;13.93;12.53;;;;;;;;;;12667834;23;20024;-72
2023/10/28 18:53:29;;;;;;;14.50;13.20;;;;;;;;;;12688600;23;20023;-74
2023/10/28 18:59:17;;;;;;;14.15;12.68;;;;;;;;;;12669309;23;20020;-74
2023/10/28 19:05:11;;;;;;;;;;;;;;;;;;;;;
2023/10/28 19:10:23;;;;;;;16.25;14.75;;;;;;;;;;12617274;22;20078;-73
2023/10/28 19:15:20;;;;;;;16.05;14.35;;;;;;;;;;12695314;23;20474;-73
2023/10/28 19:20:16;;;;;;;15.13;13.68;;;;;;;;;;12670585;23;20067;-74
2023/10/28 19:25:14;;;;;;;15.15;13.85;;;;;;;;;;12695743;23;20086;-73
2023/10/28 19:30:11;;;;;;;13.77;12.63;;;;;;;;;;12695988;23;20024;-73
2023/10/28 19:35:09;;;;;;;15.48;14.00;;;;;;;;;;12696470;23;20027;-73
2023/10/28 19:40:05;;;;;;;14.85;13.52;;;;;;;;;;12696752;23;20020;-74
2023/10/28 19:45:04;;;;;;;16.23;12.73;;;;;;;;;;12696326;23;20020;-74
2023/10/28 19:50:00;;;;;;;13.50;12.23;;;;;;;;;;12696480;23;20051;-74
2023/10/28 19:54:57;;;;;;;14.15;12.73;;;;;;;;;;12695969;23;20454;-74
2023/10/28 19:59:54;;;;;;;14.23;11.68;;;;;;;;;;12694436;23;20040;-73
2023/10/28 20:04:50;;;;;;;13.05;11.73;;;;;;;;;;12695486;23;20070;-72
2023/10/28 20:09:46;;;;;;;13.27;12.20;;;;;;;;;;12695010;23;20029;-73
2023/10/28 20:14:43;;;;;;;14.68;13.38;;;;;;;;;;12690000;22;20031;-74
2023/10/28 20:19:39;;;;;;;14.25;12.82;;;;;;;;;;12695256;23;20048;-74
2023/10/28 20:24:36;;;;;;;13.57;12.43;;;;;;;;;;12695058;23;20024;-74
2023/10/28 20:29:37;;;;;;;14.43;13.07;;;;;;;;;;12694965;22;20036;-74
2023/10/28 20:34:33;;;;;;;13.77;12.57;;;;;;;;;;12695131;23;20052;-74
2023/10/28 20:55:53;;;;;;;12.38;11.27;;;;;;;;;;12696250;23;20008;-74
2023/10/28 21:34:01;;;;;;;13.50;12.32;;;;;;;;;;12696268;23;20042;-73
2023/10/28 22:12:03;;;;;;;12.35;11.30;;;;;;;;;;12699044;22;20020;-75
2023/10/28 22:28:32;;;;;;;12.45;11.38;;;;;;;;;;12698261;22;20487;-74
2023/10/28 22:33:28;;;;;;;12.27;10.98;;;;;;;;;;12695572;22;20024;-73
2023/10/28 23:29:29;;;;;;;13.57;12.15;;;;;;;;;;12697597;22;20462;-73
2023/10/28 23:34:25;;;;;;;12.45;11.35;;;;;;;;;;12690423;23;20124;-74
2023/10/28 23:50:27;;;;;;;12.27;11.38;;;;;;;;;;12696714;22;20482;-73
2023/10/28 23:55:24;;;;;;;14.02;12.80;;;;;;;;;;12669263;23;20016;-74
